createdAt,value
2023-04-18T00:03:31.553Z,67.39
2023-04-18T00:05:59.830Z,65.52
2023-04-18T00:08:26.516Z,65.25
2023-04-18T00:10:54.349Z,66.17
2023-04-18T00:13:21.508Z,65.17
2023-04-18T00:15:48.708Z,66.27
2023-04-18T00:18:17.432Z,66.09
2023-04-18T00:20:46.162Z,65.28
2023-04-18T00:23:14.100Z,66.15
2023-04-18T00:25:41.201Z,64.75
2023-04-18T00:28:08.220Z,65.67
2023-04-18T00:30:35.337Z,64.84
2023-04-18T00:33:06.538Z,65.91
2023-04-18T00:35:33.677Z,65.38
2023-04-18T00:38:01.785Z,64.64
2023-04-18T00:40:29.310Z,65.02
2023-04-18T00:42:56.486Z,65.65
2023-04-18T00:45:23.854Z,66.60
2023-04-18T00:47:51.129Z,65.85
2023-04-18T00:50:19.961Z,64.97
2023-04-18T00:52:48.172Z,65.24
2023-04-18T00:55:16.397Z,65.04
2023-04-18T00:57:44.026Z,64.44
2023-04-18T01:00:12.759Z,66.01
2023-04-18T01:02:41.324Z,63.85
2023-04-18T01:05:09.672Z,64.35
2023-04-18T01:07:40.790Z,64.89
2023-04-18T01:10:10.346Z,64.71
2023-04-18T01:12:37.721Z,63.32
2023-04-18T01:15:05.758Z,64.69
2023-04-18T01:17:34.728Z,64.35
2023-04-18T01:20:03.445Z,63.27
2023-04-18T01:22:32.242Z,64.07
2023-04-18T01:24:59.458Z,65.18
2023-04-18T01:27:26.583Z,63.69
2023-04-18T01:29:56.439Z,65.72
2023-04-18T01:32:23.889Z,64.94
2023-04-18T01:34:50.952Z,65.23
2023-04-18T01:37:23.416Z,64.82
2023-04-18T01:39:50.244Z,65.66
2023-04-18T01:42:19.099Z,66.19
2023-04-18T01:44:46.123Z,65.43
2023-04-18T01:47:13.399Z,66.23
2023-04-18T01:49:42.921Z,65.59
2023-04-18T01:52:09.973Z,65.66
2023-04-18T01:54:41.111Z,65.11
2023-04-18T01:57:07.932Z,65.16
2023-04-18T01:59:35.365Z,64.10
2023-04-18T02:02:02.627Z,62.37
2023-04-18T02:04:29.716Z,64.13
2023-04-18T02:06:56.946Z,64.00
2023-04-18T02:09:24.217Z,64.02
2023-04-18T02:11:51.362Z,63.83
2023-04-18T02:14:18.222Z,64.99
2023-04-18T02:16:46.047Z,65.22
2023-04-18T02:19:13.004Z,65.95
2023-04-18T02:21:44.546Z,65.59
2023-04-18T02:24:11.666Z,65.55
2023-04-18T02:26:39.782Z,66.06
2023-04-18T02:29:06.980Z,64.23
2023-04-18T02:31:34.032Z,65.92
2023-04-18T02:34:01.191Z,64.40
2023-04-18T02:36:28.353Z,64.94
2023-04-18T02:38:55.431Z,64.11
2023-04-18T02:41:22.760Z,64.43
2023-04-18T02:43:51.506Z,66.12
2023-04-18T02:46:21.014Z,64.85
2023-04-18T02:48:49.494Z,65.32
2023-04-18T02:51:23.745Z,64.53
2023-04-18T02:53:55.048Z,64.70
2023-04-18T02:56:22.770Z,65.63
2023-04-18T02:59:08.736Z,64.96
2023-04-18T03:01:56.843Z,65.24
2023-04-18T03:04:24.440Z,64.23
2023-04-18T03:07:00.572Z,64.36
2023-04-18T03:09:31.005Z,63.58
2023-04-18T03:12:03.270Z,63.48
2023-04-18T03:14:32.402Z,63.84
2023-04-18T03:17:01.282Z,63.43
2023-04-18T03:19:34.523Z,63.55
2023-04-18T03:22:06.189Z,62.79
2023-04-18T03:24:36.446Z,63.46
2023-04-18T03:27:06.449Z,63.21
2023-04-18T03:29:36.053Z,63.68
2023-04-18T03:32:06.488Z,64.05
2023-04-18T03:34:33.759Z,63.87
2023-04-18T03:37:02.460Z,63.84
2023-04-18T03:39:32.586Z,63.70
2023-04-18T03:42:02.834Z,63.12
2023-04-18T03:44:30.290Z,63.88
2023-04-18T03:46:57.736Z,63.28
2023-04-18T03:49:26.230Z,62.83
2023-04-18T03:51:53.277Z,62.86
2023-04-18T03:54:21.053Z,63.41
2023-04-18T03:56:49.628Z,63.04
2023-04-18T03:59:16.849Z,64.30
2023-04-18T04:01:47.745Z,64.17
2023-04-18T04:04:17.220Z,63.94
2023-04-18T04:06:44.747Z,63.77
2023-04-18T04:09:11.609Z,63.12
2023-04-18T04:11:40.010Z,65.47
2023-04-18T04:14:10.402Z,63.42
2023-04-18T04:16:42.389Z,62.99
2023-04-18T04:19:11.975Z,64.05
2023-04-18T04:21:46.437Z,63.89
2023-04-18T04:24:17.613Z,63.69
2023-04-18T04:26:48.887Z,63.36
2023-04-18T04:29:23.988Z,63.08
2023-04-18T04:31:53.104Z,62.71
2023-04-18T04:34:31.301Z,62.66
2023-04-18T04:37:01.001Z,62.07
2023-04-18T04:39:29.519Z,62.42
2023-04-18T04:42:15.601Z,61.43
2023-04-18T04:44:54.779Z,62.68
2023-04-18T04:47:29.733Z,62.99
2023-04-18T04:49:57.215Z,63.56
2023-04-18T04:52:24.558Z,64.34
2023-04-18T04:54:52.096Z,65.21
2023-04-18T04:57:21.249Z,63.26
2023-04-18T04:59:48.538Z,63.36
2023-04-18T05:02:16.861Z,64.31
2023-04-18T05:04:45.037Z,63.72
2023-04-18T05:07:12.701Z,64.06
2023-04-18T05:09:41.282Z,62.91
2023-04-18T05:12:08.895Z,64.66
2023-04-18T05:14:35.980Z,63.86
2023-04-18T05:17:04.429Z,63.11
2023-04-18T05:19:31.560Z,63.63
2023-04-18T05:21:58.870Z,64.31
2023-04-18T05:24:26.460Z,64.77
2023-04-18T05:26:54.153Z,64.88
2023-04-18T05:29:21.517Z,63.73
2023-04-18T05:31:48.855Z,62.77
2023-04-18T05:34:16.587Z,62.83
2023-04-18T05:36:44.955Z,63.49
2023-04-18T05:39:12.550Z,63.30
2023-04-18T05:41:40.212Z,63.68
2023-04-18T05:44:08.393Z,62.55
2023-04-18T05:46:36.183Z,64.26
2023-04-18T05:49:04.317Z,64.33
2023-04-18T05:51:32.252Z,63.25
2023-04-18T05:54:04.277Z,64.52
2023-04-18T05:56:34.145Z,64.60
2023-04-18T05:59:01.964Z,65.18
2023-04-18T06:01:30.249Z,64.21
2023-04-18T06:03:57.225Z,65.09
2023-04-18T06:06:25.060Z,64.04
2023-04-18T06:08:52.306Z,64.62
2023-04-18T06:11:21.442Z,65.19
2023-04-18T06:13:48.748Z,64.03
2023-04-18T06:16:16.203Z,64.46
2023-04-18T06:18:43.552Z,64.56
2023-04-18T06:21:10.916Z,63.58
2023-04-18T06:23:38.711Z,63.40
2023-04-18T06:26:07.415Z,62.93
2023-04-18T06:28:34.319Z,63.26
2023-04-18T06:31:01.565Z,61.77
2023-04-18T06:33:29.290Z,61.39
2023-04-18T06:38:52.235Z,62.41
2023-04-18T06:41:20.841Z,62.92
2023-04-18T06:44:03.433Z,62.79
2023-04-18T06:46:39.090Z,62.77
2023-04-18T06:49:11.482Z,62.93
2023-04-18T06:54:25.022Z,62.67
2023-04-18T06:57:08.905Z,62.86
2023-04-18T06:59:41.763Z,64.04
2023-04-18T07:02:11.635Z,64.33
2023-04-18T07:04:39.776Z,64.55
2023-04-18T07:07:10.548Z,64.42
2023-04-18T07:09:50.539Z,64.66
2023-04-18T07:12:19.968Z,64.96
2023-04-18T07:14:48.643Z,64.05
2023-04-18T07:17:16.250Z,65.29
2023-04-18T07:19:44.319Z,64.31
2023-04-18T07:22:11.847Z,63.80
2023-04-18T07:24:41.178Z,63.87
2023-04-18T07:27:10.037Z,64.01
2023-04-18T07:29:39.036Z,62.62
2023-04-18T07:32:08.530Z,63.83
2023-04-18T07:34:37.658Z,64.79
2023-04-18T07:37:05.289Z,64.25
2023-04-18T07:39:36.463Z,64.27
2023-04-18T07:42:05.378Z,65.19
2023-04-18T07:44:34.756Z,65.65
2023-04-18T07:47:02.398Z,64.38
2023-04-18T07:49:29.720Z,63.13
2023-04-18T07:51:57.328Z,62.57
2023-04-18T07:54:25.585Z,62.48
2023-04-18T07:56:52.673Z,62.82
2023-04-18T07:59:19.999Z,65.00
2023-04-18T08:01:47.373Z,65.53
2023-04-18T08:04:15.817Z,64.30
2023-04-18T08:06:44.791Z,63.10
2023-04-18T08:09:15.787Z,64.09
2023-04-18T08:11:43.557Z,63.23
2023-04-18T08:14:11.618Z,64.39
2023-04-18T08:16:39.702Z,63.45
2023-04-18T08:19:08.933Z,62.94
2023-04-18T08:21:37.020Z,63.21
2023-04-18T08:24:04.731Z,63.44
2023-04-18T08:26:32.538Z,63.72
2023-04-18T08:29:00.508Z,62.04
2023-04-18T08:31:28.607Z,61.19
2023-04-18T08:33:56.275Z,60.99
2023-04-18T08:36:25.227Z,60.95
2023-04-18T08:38:52.615Z,61.99
2023-04-18T08:41:25.172Z,61.31
2023-04-18T08:43:52.351Z,62.21
2023-04-18T08:46:19.905Z,61.81
2023-04-18T08:48:50.188Z,61.13
2023-04-18T08:51:17.985Z,60.79
2023-04-18T08:53:46.024Z,60.06
2023-04-18T08:56:15.558Z,60.77
2023-04-18T08:58:45.492Z,60.60
2023-04-18T09:01:14.093Z,59.90
2023-04-18T09:03:43.431Z,60.99
2023-04-18T09:06:14.135Z,60.28
2023-04-18T09:08:44.079Z,61.10
2023-04-18T09:11:23.662Z,59.82
2023-04-18T09:13:52.137Z,59.26
2023-04-18T09:16:20.885Z,60.78
2023-04-18T09:19:14.022Z,59.16
2023-04-18T09:21:47.183Z,60.28
2023-04-18T09:24:27.322Z,59.83
2023-04-18T09:27:01.558Z,58.78
2023-04-18T09:29:51.948Z,59.21
2023-04-18T09:32:27.573Z,59.54
2023-04-18T09:35:00.204Z,59.19
2023-04-18T09:37:29.757Z,60.19
2023-04-18T09:39:59.602Z,59.15
2023-04-18T09:42:28.786Z,58.78
2023-04-18T09:45:06.576Z,60.40
2023-04-18T09:47:35.571Z,59.39
2023-04-18T09:50:08.196Z,59.48
2023-04-18T09:52:38.101Z,59.08
2023-04-18T09:55:08.448Z,58.72
2023-04-18T09:57:39.107Z,58.42
2023-04-18T10:00:12.469Z,58.14
2023-04-18T10:02:56.688Z,58.34
2023-04-18T10:05:28.362Z,58.00
2023-04-18T10:07:59.410Z,57.30
2023-04-18T10:10:40.595Z,58.09
2023-04-18T10:13:11.918Z,57.17
2023-04-18T10:15:41.742Z,57.79
2023-04-18T10:18:15.443Z,57.33
2023-04-18T10:20:44.858Z,56.84
2023-04-18T10:23:31.143Z,57.46
2023-04-18T10:25:59.832Z,57.56
2023-04-18T10:28:28.644Z,57.97
2023-04-18T10:31:05.834Z,58.45
2023-04-18T10:33:41.999Z,57.75
2023-04-18T10:36:12.909Z,57.51
2023-04-18T10:38:47.358Z,56.66
2023-04-18T10:41:25.476Z,55.56
2023-04-18T10:44:11.375Z,55.40
2023-04-18T10:46:52.221Z,57.03
2023-04-18T10:49:27.365Z,56.68
2023-04-18T10:52:00.693Z,56.11
2023-04-18T10:54:43.415Z,56.15
2023-04-18T10:57:12.269Z,55.48
2023-04-18T10:59:45.139Z,56.06
2023-04-18T11:02:30.589Z,55.77
2023-04-18T11:05:06.803Z,54.60
2023-04-18T11:07:41.445Z,56.02
2023-04-18T11:10:10.928Z,57.03
2023-04-18T11:12:41.366Z,55.09
2023-04-18T11:15:23.588Z,56.21
2023-04-18T11:18:03.774Z,56.65
2023-04-18T11:20:50.185Z,56.00
2023-04-18T11:23:25.858Z,55.30
2023-04-18T11:25:56.742Z,54.24
2023-04-18T11:28:27.934Z,55.34
2023-04-18T11:30:59.485Z,54.58
2023-04-18T11:33:29.624Z,54.79
2023-04-18T11:36:02.204Z,53.83
2023-04-18T11:38:35.097Z,54.67
2023-04-18T11:41:06.247Z,54.50
2023-04-18T11:43:34.437Z,53.59
2023-04-18T11:46:02.293Z,54.95
2023-04-18T11:48:42.263Z,57.15
2023-04-18T11:51:34.669Z,54.45
2023-04-18T11:54:06.713Z,54.20
2023-04-18T11:56:36.640Z,54.40
2023-04-18T11:59:12.889Z,52.48
2023-04-18T12:01:58.913Z,53.49
2023-04-18T12:04:27.899Z,54.86
2023-04-18T12:06:55.737Z,54.97
2023-04-18T12:09:30.622Z,53.43
2023-04-18T12:12:03.393Z,56.13
2023-04-18T12:14:31.739Z,55.24
2023-04-18T12:16:59.709Z,54.52
2023-04-18T12:19:32.964Z,53.94
2023-04-18T12:22:05.584Z,55.51
2023-04-18T12:24:33.364Z,54.13
2023-04-18T12:27:01.906Z,53.54
2023-04-18T12:29:30.268Z,54.65
2023-04-18T12:32:00.712Z,55.07
2023-04-18T12:34:29.401Z,53.84
2023-04-18T12:36:56.693Z,54.62
2023-04-18T12:39:26.373Z,55.65
2023-04-18T12:41:53.971Z,55.69
2023-04-18T12:44:21.490Z,54.32
2023-04-18T12:46:48.898Z,54.21
2023-04-18T12:49:16.717Z,54.09
2023-04-18T12:51:43.934Z,55.54
2023-04-18T12:54:11.207Z,57.74
2023-04-18T12:56:38.882Z,54.47
2023-04-18T12:59:06.717Z,54.09
2023-04-18T13:01:37.143Z,52.98
2023-04-18T13:04:12.698Z,52.87
2023-04-18T13:06:40.750Z,52.72
2023-04-18T13:09:09.724Z,51.77
2023-04-18T13:11:37.909Z,53.13
2023-04-18T13:14:05.722Z,52.91
2023-04-18T13:16:32.722Z,52.93
2023-04-18T13:19:02.843Z,52.88
2023-04-18T13:21:56.041Z,54.43
2023-04-18T13:24:28.352Z,52.89
2023-04-18T13:26:56.564Z,52.68
2023-04-18T13:29:24.015Z,54.39
2023-04-18T13:31:54.183Z,54.00
2023-04-18T13:34:22.493Z,53.86
2023-04-18T13:36:49.740Z,54.08
2023-04-18T13:39:20.592Z,53.41
2023-04-18T13:41:47.837Z,53.47
2023-04-18T13:44:15.377Z,53.31
2023-04-18T13:47:00.122Z,53.36
2023-04-18T13:49:31.807Z,52.43
2023-04-18T13:51:59.240Z,52.43
2023-04-18T13:54:28.347Z,52.76
2023-04-18T13:56:57.922Z,52.75
2023-04-18T13:59:30.116Z,52.62
2023-04-18T14:01:57.917Z,53.57
2023-04-18T14:04:29.558Z,53.41
2023-04-18T14:06:56.704Z,52.54
2023-04-18T14:09:25.089Z,53.63
2023-04-18T14:11:53.559Z,52.66
2023-04-18T14:14:20.938Z,51.72
2023-04-18T14:16:48.292Z,51.15
2023-04-18T14:19:16.437Z,51.47
2023-04-18T14:21:44.365Z,51.22
2023-04-18T14:24:12.246Z,51.69
2023-04-18T14:26:39.507Z,52.51
2023-04-18T14:29:07.260Z,54.15
2023-04-18T14:31:34.354Z,55.35
2023-04-18T14:34:11.024Z,54.39
2023-04-18T14:36:38.324Z,53.08
2023-04-18T14:39:06.189Z,52.80
2023-04-18T14:41:33.243Z,53.70
2023-04-18T14:44:01.137Z,53.32
2023-04-18T14:46:29.358Z,51.88
2023-04-18T14:48:57.770Z,52.22
2023-04-18T14:51:25.506Z,52.66
2023-04-18T14:53:52.865Z,51.42
2023-04-18T14:56:21.849Z,51.50
2023-04-18T14:58:48.904Z,51.15
2023-04-18T15:01:17.717Z,49.48
2023-04-18T15:03:45.700Z,49.59
2023-04-18T15:06:13.364Z,50.00
2023-04-18T15:08:44.491Z,52.37
2023-04-18T15:11:15.487Z,52.83
2023-04-18T15:13:51.782Z,52.84
2023-04-18T15:16:19.141Z,53.68
2023-04-18T15:18:46.374Z,51.96
2023-04-18T15:21:13.425Z,51.76
2023-04-18T15:23:41.248Z,51.20
2023-04-18T15:26:08.934Z,51.78
2023-04-18T15:28:36.772Z,51.65
2023-04-18T15:31:06.939Z,52.74
2023-04-18T15:33:34.328Z,51.91
2023-04-18T15:36:03.161Z,49.73
2023-04-18T15:38:32.884Z,50.10
2023-04-18T15:41:00.849Z,49.74
2023-04-18T15:43:28.188Z,51.11
2023-04-18T15:45:56.047Z,51.36
2023-04-18T15:48:27.652Z,50.83
2023-04-18T15:50:55.431Z,50.43
2023-04-18T15:53:22.718Z,49.41
2023-04-18T15:55:51.027Z,49.97
2023-04-18T15:58:22.260Z,51.77
2023-04-18T16:00:53.433Z,52.04
2023-04-18T16:03:22.052Z,50.82
2023-04-18T16:05:50.819Z,51.18
2023-04-18T16:08:18.695Z,51.66
2023-04-18T16:10:52.061Z,51.88
2023-04-18T16:13:19.589Z,52.12
2023-04-18T16:15:48.351Z,52.84
2023-04-18T16:18:15.670Z,52.19
2023-04-18T16:20:45.984Z,52.68
2023-04-18T16:23:14.554Z,52.20
2023-04-18T16:25:42.918Z,52.27
2023-04-18T16:28:10.243Z,53.93
2023-04-18T16:30:37.923Z,53.44
2023-04-18T16:33:06.695Z,53.33
2023-04-18T16:35:34.045Z,53.92
2023-04-18T16:38:00.999Z,54.81
2023-04-18T16:40:30.877Z,53.38
2023-04-18T16:42:58.412Z,53.78
2023-04-18T16:45:26.164Z,52.51
2023-04-18T16:47:53.935Z,54.34
2023-04-18T16:50:23.118Z,52.63
2023-04-18T16:52:50.374Z,53.64
2023-04-18T16:55:17.794Z,53.91
2023-04-18T16:57:44.823Z,54.32
2023-04-18T17:00:13.909Z,55.75
2023-04-18T17:02:43.569Z,56.37
2023-04-18T17:05:11.506Z,56.43
2023-04-18T17:07:38.742Z,56.89
2023-04-18T17:10:07.794Z,55.26
2023-04-18T17:12:37.605Z,55.31
2023-04-18T17:15:07.972Z,56.42
2023-04-18T17:17:35.701Z,57.52
2023-04-18T17:20:06.301Z,56.70
2023-04-18T17:22:33.455Z,56.65
2023-04-18T17:25:02.247Z,55.78
2023-04-18T17:27:29.559Z,56.82
2023-04-18T17:29:56.909Z,56.42
2023-04-18T17:32:24.472Z,55.64
2023-04-18T17:34:52.286Z,57.29
2023-04-18T17:37:22.680Z,58.30
2023-04-18T17:39:51.218Z,57.31
2023-04-18T17:42:19.924Z,58.71
2023-04-18T17:44:50.733Z,59.78
2023-04-18T17:47:32.136Z,59.43
2023-04-18T17:50:01.896Z,59.10
2023-04-18T17:52:32.806Z,59.44
2023-04-18T17:55:02.976Z,59.92
2023-04-18T17:57:30.951Z,59.22
2023-04-18T17:59:57.940Z,57.96
2023-04-18T18:02:25.335Z,58.31
2023-04-18T18:04:52.978Z,59.78
2023-04-18T18:07:21.263Z,59.13
2023-04-18T18:09:48.623Z,58.03
2023-04-18T18:12:15.819Z,58.35
2023-04-18T18:14:43.656Z,58.99
2023-04-18T18:17:11.462Z,59.31
2023-04-18T18:19:38.610Z,58.72
2023-04-18T18:22:05.894Z,58.19
2023-04-18T18:24:33.103Z,58.92
2023-04-18T18:27:01.650Z,59.88
2023-04-18T18:29:29.902Z,60.19
2023-04-18T18:31:57.412Z,59.79
2023-04-18T18:34:24.827Z,59.31
2023-04-18T18:36:54.276Z,59.58
2023-04-18T18:39:21.606Z,59.50
2023-04-18T18:41:49.071Z,59.93
2023-04-18T18:44:16.861Z,59.46
2023-04-18T18:46:44.702Z,59.01
2023-04-18T18:49:12.740Z,59.47
2023-04-18T18:51:42.853Z,57.88
2023-04-18T18:54:11.770Z,58.21
2023-04-18T18:56:40.205Z,58.89
2023-04-18T18:59:07.125Z,59.15
2023-04-18T19:01:34.987Z,60.06
2023-04-18T19:04:03.262Z,60.05
2023-04-18T19:06:33.238Z,59.11
2023-04-18T19:09:00.954Z,59.96
2023-04-18T19:11:30.070Z,58.94
2023-04-18T19:14:01.526Z,57.72
2023-04-18T19:16:28.494Z,57.60
2023-04-18T19:18:55.655Z,58.27
2023-04-18T19:21:22.721Z,58.11
2023-04-18T19:23:52.964Z,59.57
2023-04-18T19:26:22.500Z,59.19
2023-04-18T19:28:49.856Z,58.24
2023-04-18T19:31:19.742Z,59.01
2023-04-18T19:33:47.029Z,59.58
2023-04-18T19:36:14.178Z,58.64
2023-04-18T19:38:46.794Z,58.03
2023-04-18T19:41:14.537Z,59.79
2023-04-18T19:43:42.817Z,60.09
2023-04-18T19:46:10.214Z,59.29
2023-04-18T19:48:37.912Z,59.42
2023-04-18T19:51:05.331Z,61.48
2023-04-18T19:53:32.904Z,59.64
2023-04-18T19:55:59.957Z,58.33
2023-04-18T19:58:38.829Z,58.14
2023-04-18T20:01:06.621Z,59.75
2023-04-18T20:03:34.402Z,59.69
2023-04-18T20:06:02.072Z,58.08
2023-04-18T20:08:29.512Z,59.70
2023-04-18T20:10:58.243Z,58.99
2023-04-18T20:13:25.570Z,58.83
2023-04-18T20:15:53.460Z,58.49
2023-04-18T20:18:21.674Z,58.09
2023-04-18T20:20:49.035Z,58.80
2023-04-18T20:23:16.466Z,58.95
2023-04-18T20:25:43.584Z,59.05
2023-04-18T20:28:11.467Z,59.52
2023-04-18T20:30:38.529Z,59.05
2023-04-18T20:33:05.949Z,59.74
2023-04-18T20:35:33.043Z,59.80
2023-04-18T20:38:00.555Z,59.47
2023-04-18T20:40:28.328Z,59.45
2023-04-18T20:42:59.153Z,60.21
2023-04-18T20:45:27.824Z,59.64
2023-04-18T20:47:54.702Z,60.25
2023-04-18T20:50:21.781Z,60.62
2023-04-18T20:52:48.960Z,58.12
2023-04-18T20:55:16.849Z,59.45
2023-04-18T20:57:44.676Z,59.55
2023-04-18T21:00:14.224Z,58.66
2023-04-18T21:02:41.752Z,58.54
2023-04-18T21:05:09.280Z,59.40
2023-04-18T21:07:36.628Z,58.24
2023-04-18T21:10:06.732Z,58.07
2023-04-18T21:12:34.032Z,58.74
2023-04-18T21:15:01.181Z,57.91
2023-04-18T21:17:28.209Z,57.78
2023-04-18T21:19:56.061Z,58.13
2023-04-18T21:22:27.781Z,58.11
2023-04-18T21:24:55.054Z,59.05
2023-04-18T21:27:21.977Z,58.04
2023-04-18T21:29:49.372Z,57.68
2023-04-18T21:32:16.941Z,57.32
2023-04-18T21:34:43.846Z,57.03
2023-04-18T21:37:11.014Z,56.33
2023-04-18T21:39:38.533Z,56.67
2023-04-18T21:42:05.833Z,57.35
2023-04-18T21:44:33.811Z,57.94
2023-04-18T21:47:00.820Z,57.29
2023-04-18T21:49:27.633Z,58.48
2023-04-18T21:51:55.503Z,58.32
2023-04-18T21:54:23.109Z,58.02
2023-04-18T21:56:50.681Z,57.36
2023-04-18T21:59:17.899Z,57.20
2023-04-18T22:01:46.004Z,57.30
2023-04-18T22:04:16.509Z,57.34
2023-04-18T22:06:43.909Z,59.02
2023-04-18T22:09:12.101Z,59.24
2023-04-18T22:11:39.022Z,60.01
2023-04-18T22:14:06.167Z,59.23
2023-04-18T22:16:33.628Z,58.74
2023-04-18T22:19:01.607Z,58.12
2023-04-18T22:21:28.817Z,57.05
2023-04-18T22:23:55.926Z,57.63
2023-04-18T22:26:25.543Z,57.62
2023-04-18T22:28:52.967Z,58.43
2023-04-18T22:31:19.808Z,59.51
2023-04-18T22:33:47.725Z,60.22
2023-04-18T22:36:14.548Z,59.63
2023-04-18T22:38:41.911Z,58.63
2023-04-18T22:41:08.893Z,58.36
2023-04-18T22:43:36.506Z,58.37
2023-04-18T22:46:04.052Z,59.01
2023-04-18T22:48:31.323Z,59.43
2023-04-18T22:50:58.186Z,60.54
2023-04-18T22:53:25.221Z,61.18
2023-04-18T22:55:52.423Z,60.14
2023-04-18T22:58:19.318Z,60.14
2023-04-18T23:00:46.427Z,59.38
2023-04-18T23:03:13.338Z,60.19
2023-04-18T23:05:40.803Z,60.61
2023-04-18T23:08:07.800Z,60.40
2023-04-18T23:10:34.861Z,59.69
2023-04-18T23:13:01.988Z,60.83
2023-04-18T23:15:28.939Z,60.49
2023-04-18T23:17:55.718Z,60.88
2023-04-18T23:20:24.009Z,61.04
2023-04-18T23:22:51.886Z,61.51
2023-04-18T23:25:19.995Z,60.81
2023-04-18T23:27:47.461Z,62.60
2023-04-18T23:30:14.544Z,63.25
2023-04-18T23:32:41.395Z,63.97
2023-04-18T23:35:09.189Z,63.27
2023-04-18T23:37:36.191Z,62.22
2023-04-18T23:40:06.948Z,61.97
2023-04-18T23:42:37.236Z,61.24
2023-04-18T23:45:06.286Z,63.28
2023-04-18T23:47:33.174Z,61.86
2023-04-18T23:50:01.182Z,63.32
2023-04-18T23:52:28.762Z,63.66
2023-04-18T23:54:58.722Z,62.69
2023-04-18T23:57:25.751Z,62.80
2023-04-18T23:59:52.891Z,62.25
